createdAt,value
2023-04-06T00:00:51.304Z,102030.13
2023-04-06T00:03:54.912Z,102022.34
2023-04-06T00:06:58.585Z,102020.78
2023-04-06T00:10:04.215Z,102019.81
2023-04-06T00:13:08.399Z,102015.41
2023-04-06T00:16:11.988Z,102008.53
2023-04-06T00:19:16.257Z,102007.81
2023-04-06T00:22:19.826Z,102003.41
2023-04-06T00:25:24.767Z,102009.16
2023-04-06T00:28:29.325Z,102005.66
2023-04-06T00:31:32.975Z,102005.53
2023-04-06T00:34:36.529Z,102005.59
2023-04-06T00:37:40.088Z,102004.81
2023-04-06T00:40:46.414Z,102007.38
2023-04-06T00:43:50.298Z,102002.91
2023-04-06T00:46:54.068Z,102007.19
2023-04-06T00:49:57.762Z,101997.53
2023-04-06T00:53:01.522Z,102000.16
2023-04-06T00:56:07.364Z,101992.41
2023-04-06T00:59:11.302Z,101993.38
2023-04-06T01:02:15.069Z,101989.91
2023-04-06T01:05:19.018Z,101985.50
2023-04-06T01:08:22.920Z,101985.34
2023-04-06T01:11:28.286Z,101980.13
2023-04-06T01:14:32.021Z,101984.47
2023-04-06T01:17:36.329Z,101978.34
2023-04-06T01:20:40.185Z,101975.09
2023-04-06T01:23:47.079Z,101970.66
2023-04-06T01:26:50.760Z,101976.53
2023-04-06T01:29:54.286Z,101975.66
2023-04-06T01:32:57.984Z,101969.81
2023-04-06T01:36:02.085Z,101967.88
2023-04-06T01:39:07.403Z,101969.50
2023-04-06T01:42:11.146Z,101960.97
2023-04-06T01:45:14.852Z,101964.31
2023-04-06T01:48:18.749Z,101960.81
2023-04-06T01:51:22.359Z,101956.59
2023-04-06T01:54:27.223Z,101956.63
2023-04-06T01:57:30.771Z,101955.84
2023-04-06T02:00:34.478Z,101953.41
2023-04-06T02:03:37.966Z,101948.22
2023-04-06T02:06:41.505Z,101940.56
2023-04-06T02:09:46.489Z,101941.53
2023-04-06T02:12:50.260Z,101938.06
2023-04-06T02:15:53.796Z,101934.44
2023-04-06T02:18:57.290Z,101931.81
2023-04-06T02:22:01.378Z,101927.56
2023-04-06T02:25:07.246Z,101937.00
2023-04-06T02:28:10.779Z,101930.88
2023-04-06T02:31:16.047Z,101933.34
2023-04-06T02:34:19.717Z,101927.31
2023-04-06T02:37:24.287Z,101935.03
2023-04-06T02:40:29.200Z,101925.53
2023-04-06T02:43:33.525Z,101926.34
2023-04-06T02:46:37.229Z,101926.47
2023-04-06T02:49:40.842Z,101921.25
2023-04-06T02:52:44.481Z,101919.41
2023-04-06T02:55:49.450Z,101919.13
2023-04-06T02:58:53.237Z,101920.88
2023-04-06T03:01:56.873Z,101911.97
2023-04-06T03:05:00.554Z,101905.78
2023-04-06T03:08:04.092Z,101913.56
2023-04-06T03:11:09.273Z,101910.06
2023-04-06T03:14:14.003Z,101911.75
2023-04-06T03:17:17.557Z,101909.94
2023-04-06T03:20:21.108Z,101911.47
2023-04-06T03:23:24.890Z,101911.47
2023-04-06T03:26:29.839Z,101908.13
2023-04-06T03:29:33.409Z,101902.00
2023-04-06T03:32:37.035Z,101905.47
2023-04-06T03:35:40.702Z,101904.56
2023-04-06T03:38:44.286Z,101914.84
2023-04-06T03:41:49.259Z,101909.72
2023-04-06T03:44:52.903Z,101901.31
2023-04-06T03:47:56.522Z,101905.06
2023-04-06T03:51:00.114Z,101901.66
2023-04-06T03:54:03.614Z,101899.91
2023-04-06T03:57:08.633Z,101893.94
2023-04-06T04:00:14.285Z,101900.03
2023-04-06T04:03:17.928Z,101900.72
2023-04-06T04:06:21.741Z,101903.34
2023-04-06T04:09:26.354Z,101901.53
2023-04-06T04:12:32.971Z,101904.88
2023-04-06T04:15:36.644Z,101907.53
2023-04-06T04:18:40.184Z,101901.50
2023-04-06T04:21:48.626Z,101911.91
2023-04-06T04:24:52.764Z,101909.31
2023-04-06T04:27:57.689Z,101911.00
2023-04-06T04:31:01.497Z,101909.25
2023-04-06T04:34:05.122Z,101906.66
2023-04-06T04:37:08.815Z,101900.59
2023-04-06T04:40:13.624Z,101904.84
2023-04-06T04:43:18.867Z,101901.31
2023-04-06T04:46:22.788Z,101896.09
2023-04-06T04:49:26.539Z,101896.00
2023-04-06T04:52:30.033Z,101904.66
2023-04-06T04:55:33.810Z,101896.09
2023-04-06T04:58:39.468Z,101901.16
2023-04-06T05:01:54.368Z,101900.50
2023-04-06T05:04:59.164Z,101901.28
2023-04-06T05:08:02.773Z,101894.50
2023-04-06T05:11:06.563Z,101900.41
2023-04-06T05:14:12.175Z,101897.09
2023-04-06T05:17:16.054Z,101898.59
2023-04-06T05:20:20.000Z,101901.16
2023-04-06T05:23:23.645Z,101901.84
2023-04-06T05:26:27.276Z,101903.59
2023-04-06T05:29:32.437Z,101906.16
2023-04-06T05:32:37.287Z,101893.31
2023-04-06T05:35:41.185Z,101897.72
2023-04-06T05:38:44.805Z,101891.19
2023-04-06T05:41:48.852Z,101893.09
2023-04-06T05:44:53.791Z,101892.38
2023-04-06T05:47:58.618Z,101893.34
2023-04-06T05:51:03.183Z,101892.47
2023-04-06T05:54:06.957Z,101882.81
2023-04-06T05:57:11.565Z,101887.25
2023-04-06T06:00:17.615Z,101892.94
2023-04-06T06:03:23.776Z,101884.41
2023-04-06T06:06:28.045Z,101885.44
2023-04-06T06:09:31.680Z,101894.16
2023-04-06T06:12:35.346Z,101881.75
2023-04-06T06:15:40.302Z,101881.25
2023-04-06T06:18:43.963Z,101881.91
2023-04-06T06:21:47.500Z,101880.66
2023-04-06T06:24:51.557Z,101889.34
2023-04-06T06:27:55.081Z,101895.22
2023-04-06T06:31:00.218Z,101889.06
2023-04-06T06:34:03.991Z,101899.03
2023-04-06T06:37:08.938Z,101892.16
2023-04-06T06:40:14.754Z,101886.56
2023-04-06T06:43:18.410Z,101888.25
2023-04-06T06:46:23.510Z,101885.38
2023-04-06T06:49:27.137Z,101874.63
2023-04-06T06:52:30.673Z,101867.78
2023-04-06T06:55:34.322Z,101867.34
2023-04-06T06:58:38.113Z,101867.69
2023-04-06T07:01:43.608Z,101863.91
2023-04-06T07:04:50.511Z,101866.78
2023-04-06T07:07:54.118Z,101872.84
2023-04-06T07:10:58.020Z,101869.81
2023-04-06T07:14:01.610Z,101863.09
2023-04-06T07:17:06.696Z,101861.72
2023-04-06T07:20:11.876Z,101848.38
2023-04-06T07:23:16.091Z,101846.72
2023-04-06T07:26:19.771Z,101847.69
2023-04-06T07:29:24.024Z,101849.44
2023-04-06T07:32:29.099Z,101839.19
2023-04-06T07:35:33.197Z,101835.94
2023-04-06T07:38:36.761Z,101838.66
2023-04-06T07:41:40.821Z,101835.22
2023-04-06T07:44:44.429Z,101831.84
2023-04-06T07:47:49.807Z,101841.47
2023-04-06T07:50:53.493Z,101835.34
2023-04-06T07:53:57.109Z,101834.50
2023-04-06T07:57:00.643Z,101822.41
2023-04-06T08:00:05.254Z,101818.03
2023-04-06T08:03:10.282Z,101821.53
2023-04-06T08:06:13.936Z,101812.81
2023-04-06T08:09:17.485Z,101816.28
2023-04-06T08:12:21.109Z,101810.88
2023-04-06T08:15:24.779Z,101811.78
2023-04-06T08:18:30.981Z,101805.53
2023-04-06T08:21:35.389Z,101806.59
2023-04-06T08:24:39.084Z,101807.56
2023-04-06T08:27:42.695Z,101805.78
2023-04-06T08:30:46.348Z,101803.16
2023-04-06T08:33:51.308Z,101800.53
2023-04-06T08:36:54.941Z,101788.16
2023-04-06T08:39:59.749Z,101783.66
2023-04-06T08:43:12.450Z,101788.84
2023-04-06T08:46:17.286Z,101788.47
2023-04-06T08:49:23.251Z,101785.91
2023-04-06T08:52:29.862Z,101784.19
2023-04-06T08:55:33.838Z,101777.34
2023-04-06T08:58:41.279Z,101778.13
2023-04-06T09:01:47.804Z,101780.78
2023-04-06T09:04:56.427Z,101780.94
2023-04-06T09:08:00.183Z,101773.56
2023-04-06T09:11:04.250Z,101772.53
2023-04-06T09:14:08.175Z,101769.53
2023-04-06T09:17:23.646Z,101766.47
2023-04-06T09:20:30.475Z,101773.13
2023-04-06T09:23:34.371Z,101768.28
2023-04-06T09:26:49.055Z,101766.44
2023-04-06T09:29:52.693Z,101777.34
2023-04-06T09:33:00.424Z,101757.13
2023-04-06T09:36:05.908Z,101762.63
2023-04-06T09:39:09.457Z,101763.88
2023-04-06T09:42:26.530Z,101761.09
2023-04-06T09:45:32.877Z,101757.63
2023-04-06T09:48:38.159Z,101756.00
2023-04-06T09:51:48.504Z,101757.63
2023-04-06T09:54:55.723Z,101755.78
2023-04-06T09:58:07.193Z,101752.91
2023-04-06T10:01:17.410Z,101760.25
2023-04-06T10:04:42.717Z,101748.34
2023-04-06T10:08:00.125Z,101743.13
2023-04-06T10:11:06.750Z,101741.66
2023-04-06T10:14:12.878Z,101752.66
2023-04-06T10:17:16.472Z,101744.56
2023-04-06T10:20:30.100Z,101745.19
2023-04-06T10:23:42.225Z,101747.72
2023-04-06T10:26:46.070Z,101750.91
2023-04-06T10:29:52.302Z,101752.41
2023-04-06T10:32:55.974Z,101744.84
2023-04-06T10:35:59.891Z,101735.56
2023-04-06T10:39:07.566Z,101741.47
2023-04-06T10:42:11.716Z,101733.13
2023-04-06T10:45:23.937Z,101735.00
2023-04-06T10:48:38.556Z,101729.47
2023-04-06T10:51:42.388Z,101725.44
2023-04-06T10:54:50.445Z,101733.28
2023-04-06T10:57:54.632Z,101724.44
2023-04-06T11:00:58.473Z,101719.03
2023-04-06T11:04:02.249Z,101717.22
2023-04-06T11:07:06.363Z,101718.47
2023-04-06T11:10:17.549Z,101720.25
2023-04-06T11:13:22.975Z,101718.25
2023-04-06T11:16:29.195Z,101719.84
2023-04-06T11:19:34.598Z,101714.38
2023-04-06T11:22:38.160Z,101704.28
2023-04-06T11:25:53.932Z,101710.75
2023-04-06T11:28:57.603Z,101701.41
2023-04-06T11:32:04.008Z,101702.47
2023-04-06T11:35:08.985Z,101695.28
2023-04-06T11:38:12.646Z,101688.81
2023-04-06T11:41:17.697Z,101695.78
2023-04-06T11:44:34.235Z,101683.56
2023-04-06T11:47:39.675Z,101688.66
2023-04-06T11:50:43.353Z,101673.69
2023-04-06T11:53:47.945Z,101682.41
2023-04-06T11:56:52.965Z,101677.22
2023-04-06T11:59:57.698Z,101669.13
2023-04-06T12:03:01.436Z,101662.72
2023-04-06T12:06:05.103Z,101677.06
2023-04-06T12:09:08.731Z,101667.06
2023-04-06T12:12:13.697Z,101663.22
2023-04-06T12:15:17.424Z,101656.69
2023-04-06T12:18:21.142Z,101661.81
2023-04-06T12:21:24.870Z,101654.94
2023-04-06T12:24:29.337Z,101657.34
2023-04-06T12:27:34.408Z,101650.53
2023-04-06T12:30:38.212Z,101654.38
2023-04-06T12:33:41.729Z,101643.66
2023-04-06T12:36:45.453Z,101645.94
2023-04-06T12:39:49.096Z,101642.97
2023-04-06T12:42:54.099Z,101633.19
2023-04-06T12:45:57.614Z,101642.81
2023-04-06T12:49:02.144Z,101634.63
2023-04-06T12:52:06.107Z,101636.88
2023-04-06T12:55:11.091Z,101629.44
2023-04-06T12:58:16.298Z,101637.41
2023-04-06T13:01:21.145Z,101632.38
2023-04-06T13:04:25.688Z,101629.94
2023-04-06T13:07:29.752Z,101624.13
2023-04-06T13:10:33.270Z,101612.56
2023-04-06T13:13:39.340Z,101615.00
2023-04-06T13:16:43.797Z,101613.25
2023-04-06T13:19:47.598Z,101612.84
2023-04-06T13:22:51.152Z,101616.81
2023-04-06T13:26:01.863Z,101609.72
2023-04-06T13:29:06.826Z,101607.81
2023-04-06T13:32:11.368Z,101603.09
2023-04-06T13:35:15.602Z,101595.63
2023-04-06T13:38:19.437Z,101605.34
2023-04-06T13:41:24.298Z,101596.41
2023-04-06T13:44:30.990Z,101594.31
2023-04-06T13:47:34.715Z,101601.59
2023-04-06T13:50:38.342Z,101596.50
2023-04-06T13:53:42.716Z,101596.56
2023-04-06T13:56:47.332Z,101587.03
2023-04-06T13:59:52.198Z,101587.84
2023-04-06T14:02:57.080Z,101585.91
2023-04-06T14:06:05.052Z,101584.91
2023-04-06T14:09:19.604Z,101587.53
2023-04-06T14:12:23.248Z,101584.28
2023-04-06T14:15:28.986Z,101583.13
2023-04-06T14:18:32.469Z,101578.50
2023-04-06T14:21:36.116Z,101581.19
2023-04-06T14:24:39.707Z,101578.81
2023-04-06T14:27:44.171Z,101576.72
2023-04-06T14:30:49.020Z,101565.03
2023-04-06T14:33:53.773Z,101585.72
2023-04-06T14:36:57.842Z,101575.19
2023-04-06T14:40:01.382Z,101569.59
2023-04-06T14:43:05.116Z,101561.59
2023-04-06T14:46:10.133Z,101566.22
2023-04-06T14:49:16.231Z,101559.66
2023-04-06T14:52:19.902Z,101565.31
2023-04-06T14:55:23.685Z,101560.31
2023-04-06T14:58:28.331Z,101560.53
2023-04-06T15:01:37.134Z,101555.41
2023-04-06T15:04:42.049Z,101551.06
2023-04-06T15:07:50.494Z,101554.09
2023-04-06T15:10:55.667Z,101551.53
2023-04-06T15:13:59.327Z,101553.69
2023-04-06T15:17:04.426Z,101548.88
2023-04-06T15:20:09.473Z,101547.19
2023-04-06T15:23:13.424Z,101542.53
2023-04-06T15:26:17.001Z,101548.31
2023-04-06T15:29:21.366Z,101546.09
2023-04-06T15:32:27.260Z,101544.28
2023-04-06T15:35:31.723Z,101540.59
2023-04-06T15:38:35.896Z,101536.19
2023-04-06T15:41:39.610Z,101536.41
2023-04-06T15:44:43.675Z,101540.44
2023-04-06T15:47:48.830Z,101539.44
2023-04-06T15:50:53.290Z,101541.16
2023-04-06T15:53:57.199Z,101531.16
2023-04-06T15:57:01.540Z,101537.06
2023-04-06T16:00:07.184Z,101540.25
2023-04-06T16:03:12.306Z,101534.25
2023-04-06T16:06:16.482Z,101530.09
2023-04-06T16:09:20.312Z,101538.50
2023-04-06T16:12:25.168Z,101532.72
2023-04-06T16:15:29.496Z,101535.56
2023-04-06T16:18:36.485Z,101548.34
2023-04-06T16:21:40.325Z,101536.28
2023-04-06T16:24:43.986Z,101532.34
2023-04-06T16:27:48.249Z,101536.38
2023-04-06T16:30:51.969Z,101530.50
2023-04-06T16:33:58.047Z,101535.69
2023-04-06T16:37:02.646Z,101528.53
2023-04-06T16:40:08.477Z,101532.19
2023-04-06T16:43:12.193Z,101534.22
2023-04-06T16:46:15.955Z,101526.94
2023-04-06T16:49:21.341Z,101525.41
2023-04-06T16:52:24.973Z,101532.31
2023-04-06T16:55:28.601Z,101527.44
2023-04-06T16:58:32.852Z,101534.84
2023-04-06T17:01:36.605Z,101522.06
2023-04-06T17:04:41.814Z,101527.91
2023-04-06T17:07:45.441Z,101524.59
2023-04-06T17:10:59.287Z,101532.88
2023-04-06T17:14:06.701Z,101538.38
2023-04-06T17:17:10.322Z,101537.88
2023-04-06T17:20:15.494Z,101542.44
2023-04-06T17:23:21.152Z,101535.81
2023-04-06T17:26:24.899Z,101547.31
2023-04-06T17:29:28.423Z,101537.03
2023-04-06T17:32:32.713Z,101544.28
2023-04-06T17:35:38.121Z,101550.53
2023-04-06T17:38:44.123Z,101546.16
2023-04-06T17:41:47.858Z,101543.13
2023-04-06T17:44:53.323Z,101546.00
2023-04-06T17:47:57.126Z,101545.38
2023-04-06T17:51:02.096Z,101542.09
2023-04-06T17:54:05.950Z,101545.75
2023-04-06T17:57:09.496Z,101548.63
2023-04-06T18:00:15.788Z,101557.44
2023-04-06T18:03:19.295Z,101553.25
2023-04-06T18:06:25.761Z,101561.28
2023-04-06T18:09:32.296Z,101555.22
2023-04-06T18:12:36.160Z,101565.81
2023-04-06T18:15:57.301Z,101560.75
2023-04-06T18:19:04.494Z,101566.81
2023-04-06T18:22:10.630Z,101564.47
2023-04-06T18:25:14.289Z,101569.84
2023-04-06T18:28:17.894Z,101570.75
2023-04-06T18:31:22.017Z,101568.44
2023-04-06T18:34:25.728Z,101575.47
2023-04-06T18:37:30.850Z,101578.97
2023-04-06T18:40:36.940Z,101575.53
2023-04-06T18:43:40.520Z,101574.72
2023-04-06T18:46:46.073Z,101581.78
2023-04-06T18:49:50.101Z,101580.16
2023-04-06T18:52:55.172Z,101581.94
2023-04-06T18:55:59.084Z,101581.03
2023-04-06T18:59:02.629Z,101581.03
2023-04-06T19:02:06.479Z,101592.59
2023-04-06T19:05:12.149Z,101589.03
2023-04-06T19:08:17.268Z,101587.38
2023-04-06T19:11:23.278Z,101588.34
2023-04-06T19:14:26.942Z,101583.31
2023-04-06T19:17:30.618Z,101589.41
2023-04-06T19:20:35.691Z,101587.75
2023-04-06T19:23:40.648Z,101590.53
2023-04-06T19:26:45.055Z,101593.16
2023-04-06T19:29:48.606Z,101595.03
2023-04-06T19:32:52.949Z,101596.91
2023-04-06T19:35:56.531Z,101590.09
2023-04-06T19:39:01.811Z,101587.38
2023-04-06T19:42:05.872Z,101594.47
2023-04-06T19:45:10.391Z,101599.81
2023-04-06T19:48:13.944Z,101603.34
2023-04-06T19:51:17.613Z,101603.41
2023-04-06T19:54:22.788Z,101603.34
2023-04-06T19:57:27.542Z,101602.59
2023-04-06T20:00:31.456Z,101601.72
2023-04-06T20:03:36.530Z,101597.34
2023-04-06T20:06:40.215Z,101597.25
2023-04-06T20:09:45.141Z,101600.75
2023-04-06T20:12:48.812Z,101585.84
2023-04-06T20:15:52.356Z,101599.03
2023-04-06T20:18:55.968Z,101599.03
2023-04-06T20:22:03.211Z,101599.03
2023-04-06T20:25:10.621Z,101596.38
2023-04-06T20:28:14.155Z,101592.94
2023-04-06T20:31:17.686Z,101601.56
2023-04-06T20:34:21.934Z,101599.03
2023-04-06T20:37:25.787Z,101593.00
2023-04-06T20:40:31.157Z,101596.50
2023-04-06T20:43:35.582Z,101592.22
2023-04-06T20:46:39.243Z,101594.03
2023-04-06T20:49:42.757Z,101595.81
2023-04-06T20:52:46.969Z,101592.44
2023-04-06T20:55:51.843Z,101593.38
2023-04-06T20:58:55.575Z,101601.28
2023-04-06T21:01:59.294Z,101598.72
2023-04-06T21:05:03.330Z,101593.59
2023-04-06T21:08:07.023Z,101600.56
2023-04-06T21:11:12.398Z,101594.50
2023-04-06T21:14:16.900Z,101591.91
2023-04-06T21:17:21.510Z,101588.50
2023-04-06T21:20:25.100Z,101585.88
2023-04-06T21:23:28.903Z,101586.81
2023-04-06T21:26:33.800Z,101589.47
2023-04-06T21:29:37.420Z,101602.56
2023-04-06T21:32:41.007Z,101619.16
2023-04-06T21:35:44.644Z,101596.53
2023-04-06T21:38:48.202Z,101617.38
2023-04-06T21:41:53.630Z,101616.56
2023-04-06T21:44:58.300Z,101600.06
2023-04-06T21:48:02.697Z,101599.22
2023-04-06T21:51:06.249Z,101609.63
2023-04-06T21:54:09.996Z,101607.91
2023-04-06T21:57:14.857Z,101606.19
2023-04-06T22:00:20.481Z,101603.63
2023-04-06T22:03:24.120Z,101608.00
2023-04-06T22:06:29.956Z,101608.03
2023-04-06T22:09:33.658Z,101613.22
2023-04-06T22:12:38.647Z,101601.06
2023-04-06T22:15:42.160Z,101597.59
2023-04-06T22:18:45.771Z,101596.69
2023-04-06T22:21:50.040Z,101610.59
2023-04-06T22:24:54.029Z,101607.13
2023-04-06T22:27:58.944Z,101606.25
2023-04-06T22:31:02.495Z,101610.59
2023-04-06T22:34:06.170Z,101605.34
2023-04-06T22:37:09.709Z,101601.91
2023-04-06T22:40:14.682Z,101600.16
2023-04-06T22:43:19.612Z,101604.53
2023-04-06T22:46:23.640Z,101604.50
2023-04-06T22:49:27.163Z,101607.09
2023-04-06T22:52:30.796Z,101614.97
2023-04-06T22:55:34.639Z,101614.09
2023-04-06T22:58:39.503Z,101621.03
2023-04-06T23:01:43.321Z,101619.31
2023-04-06T23:04:47.036Z,101621.06
2023-04-06T23:07:51.294Z,101623.66
2023-04-06T23:10:54.779Z,101621.06
2023-04-06T23:13:59.779Z,101634.97
2023-04-06T23:17:03.469Z,101636.69
2023-04-06T23:20:08.769Z,101635.81
2023-04-06T23:23:12.269Z,101636.69
2023-04-06T23:26:15.842Z,101631.50
2023-04-06T23:29:20.743Z,101634.06
2023-04-06T23:32:24.478Z,101634.06
2023-04-06T23:35:28.069Z,101641.88
2023-04-06T23:38:31.593Z,101644.47
2023-04-06T23:41:35.659Z,101646.22
2023-04-06T23:44:40.594Z,101641.88
2023-04-06T23:47:45.961Z,101641.00
2023-04-06T23:50:49.571Z,101639.25
2023-04-06T23:53:53.108Z,101645.34
2023-04-06T23:56:58.477Z,101639.25
